createdAt,value
2023-01-19T00:01:49.577Z,59.90
2023-01-19T00:04:52.800Z,56.10
2023-01-19T00:07:55.962Z,60.00
2023-01-19T00:10:59.217Z,62.30
2023-01-19T00:14:02.783Z,63.00
2023-01-19T00:17:06.065Z,60.00
2023-01-19T00:20:10.035Z,61.10
2023-01-19T00:23:13.906Z,58.10
2023-01-19T00:26:17.717Z,62.70
2023-01-19T00:29:21.002Z,55.40
2023-01-19T00:32:24.178Z,59.10
2023-01-19T00:35:27.396Z,68.20
2023-01-19T00:38:30.721Z,63.10
2023-01-19T00:41:52.619Z,61.40
2023-01-19T00:44:55.969Z,60.10
2023-01-19T00:47:59.333Z,63.00
2023-01-19T00:51:02.659Z,68.10
2023-01-19T00:54:10.316Z,67.20
2023-01-19T00:57:15.491Z,67.30
2023-01-19T01:00:20.017Z,69.00
2023-01-19T01:03:28.094Z,71.90
2023-01-19T01:06:31.521Z,71.40
2023-01-19T01:09:34.737Z,73.30
2023-01-19T01:12:39.261Z,69.30
2023-01-19T01:15:43.471Z,73.30
2023-01-19T01:18:46.719Z,76.80
2023-01-19T01:21:51.255Z,82.00
2023-01-19T01:24:54.478Z,83.50
2023-01-19T01:27:57.645Z,83.10
2023-01-19T01:31:00.838Z,81.80
2023-01-19T01:34:04.170Z,77.80
2023-01-19T01:37:08.318Z,75.90
2023-01-19T01:40:14.602Z,72.60
2023-01-19T01:43:19.376Z,82.10
2023-01-19T01:46:22.583Z,75.30
2023-01-19T01:49:26.033Z,68.20
2023-01-19T01:52:31.730Z,64.70
2023-01-19T01:55:46.185Z,69.00
2023-01-19T01:58:50.183Z,65.20
2023-01-19T02:02:14.439Z,70.60
2023-01-19T02:05:24.309Z,66.00
2023-01-19T02:09:06.569Z,67.70
2023-01-19T02:12:28.246Z,67.90
2023-01-19T02:15:31.468Z,68.40
2023-01-19T02:18:35.284Z,79.60
2023-01-19T02:21:52.332Z,72.90
2023-01-19T02:24:55.678Z,73.50
2023-01-19T02:28:00.696Z,73.10
2023-01-19T02:31:04.044Z,72.30
2023-01-19T02:34:11.168Z,77.70
2023-01-19T02:37:17.100Z,70.70
2023-01-19T02:40:22.247Z,70.00
2023-01-19T02:43:27.231Z,62.50
2023-01-19T02:46:30.516Z,63.10
2023-01-19T02:49:33.738Z,66.80
2023-01-19T02:52:36.975Z,57.90
2023-01-19T02:55:43.292Z,58.70
2023-01-19T02:59:08.273Z,63.80
2023-01-19T03:02:17.865Z,64.10
2023-01-19T03:05:45.568Z,62.00
2023-01-19T03:08:59.605Z,67.30
2023-01-19T03:12:40.260Z,60.40
2023-01-19T03:16:18.101Z,61.70
2023-01-19T03:19:28.877Z,62.00
2023-01-19T03:22:32.797Z,59.60
2023-01-19T03:25:41.137Z,58.10
2023-01-19T03:28:46.269Z,68.60
2023-01-19T03:31:52.449Z,57.60
2023-01-19T03:34:58.972Z,59.50
2023-01-19T03:38:06.832Z,61.50
2023-01-19T03:41:16.778Z,62.30
2023-01-19T03:44:20.236Z,57.90
2023-01-19T03:47:25.415Z,61.60
2023-01-19T03:50:30.373Z,66.20
2023-01-19T03:53:33.816Z,60.70
2023-01-19T03:56:37.119Z,73.80
2023-01-19T03:59:40.352Z,67.80
2023-01-19T04:02:43.544Z,63.70
2023-01-19T04:05:47.027Z,64.70
2023-01-19T04:08:51.653Z,60.10
2023-01-19T04:11:55.987Z,63.00
2023-01-19T04:14:59.150Z,61.80
2023-01-19T04:18:02.461Z,58.90
2023-01-19T04:21:08.188Z,57.00
2023-01-19T04:24:11.467Z,60.60
2023-01-19T04:27:16.374Z,56.40
2023-01-19T04:30:20.119Z,57.00
2023-01-19T04:33:24.053Z,60.40
2023-01-19T04:36:28.227Z,64.50
2023-01-19T04:39:31.483Z,67.80
2023-01-19T04:42:34.771Z,67.50
2023-01-19T04:45:38.225Z,66.40
2023-01-19T04:48:42.261Z,67.60
2023-01-19T04:51:45.517Z,77.50
2023-01-19T04:54:49.290Z,68.10
2023-01-19T04:57:52.522Z,71.00
2023-01-19T05:00:55.716Z,73.60
2023-01-19T05:03:59.530Z,80.00
2023-01-19T05:07:02.848Z,76.10
2023-01-19T05:10:07.372Z,73.40
2023-01-19T05:13:10.603Z,72.60
2023-01-19T05:16:14.149Z,87.30
2023-01-19T05:19:17.491Z,101.40
2023-01-19T05:22:20.917Z,121.70
2023-01-19T05:25:24.158Z,163.30
2023-01-19T05:28:31.377Z,154.30
2023-01-19T05:31:34.738Z,152.40
2023-01-19T05:34:38.028Z,132.50
2023-01-19T05:37:41.255Z,117.90
2023-01-19T05:40:44.523Z,149.30
2023-01-19T05:43:47.815Z,225.60
2023-01-19T05:46:51.813Z,256.00
2023-01-19T05:49:55.260Z,281.40
2023-01-19T05:53:00.301Z,231.70
2023-01-19T05:56:08.524Z,220.20
2023-01-19T05:59:11.728Z,210.90
2023-01-19T06:02:15.091Z,210.00
2023-01-19T06:05:18.320Z,192.50
2023-01-19T06:08:21.808Z,204.20
2023-01-19T06:11:26.149Z,191.50
2023-01-19T06:14:29.379Z,199.30
2023-01-19T06:17:33.460Z,182.30
2023-01-19T06:20:37.230Z,132.90
2023-01-19T06:23:41.270Z,133.10
2023-01-19T06:26:44.497Z,128.70
2023-01-19T06:29:47.733Z,121.20
2023-01-19T06:32:51.031Z,108.30
2023-01-19T06:35:54.818Z,108.60
2023-01-19T06:38:58.215Z,107.80
2023-01-19T06:42:01.450Z,92.10
2023-01-19T06:45:05.289Z,99.60
2023-01-19T06:48:09.388Z,84.80
2023-01-19T06:51:12.744Z,73.80
2023-01-19T06:54:16.476Z,65.00
2023-01-19T06:57:19.879Z,59.60
2023-01-19T07:00:23.694Z,59.40
2023-01-19T07:03:27.205Z,65.90
2023-01-19T07:06:30.411Z,71.70
2023-01-19T07:09:33.579Z,70.40
2023-01-19T07:12:36.792Z,91.80
2023-01-19T07:15:40.117Z,81.20
2023-01-19T07:18:43.548Z,77.20
2023-01-19T07:21:46.724Z,73.80
2023-01-19T07:24:50.271Z,69.60
2023-01-19T07:27:59.658Z,65.50
2023-01-19T07:31:03.113Z,58.20
2023-01-19T07:34:06.981Z,53.00
2023-01-19T07:37:10.494Z,59.10
2023-01-19T07:40:14.746Z,58.00
2023-01-19T07:43:18.094Z,57.10
2023-01-19T07:46:21.335Z,51.20
2023-01-19T07:49:24.897Z,55.10
2023-01-19T07:52:28.230Z,53.10
2023-01-19T07:55:31.515Z,55.70
2023-01-19T07:58:34.835Z,55.40
2023-01-19T08:01:38.285Z,57.60
2023-01-19T08:04:41.917Z,59.90
2023-01-19T08:07:46.503Z,64.20
2023-01-19T08:10:51.331Z,63.00
2023-01-19T08:13:54.657Z,60.50
2023-01-19T08:17:01.814Z,53.50
2023-01-19T08:20:06.711Z,61.80
2023-01-19T08:23:10.621Z,58.10
2023-01-19T08:26:31.856Z,59.50
2023-01-19T08:32:40.041Z,62.50
2023-01-19T08:35:49.948Z,66.60
2023-01-19T08:38:53.576Z,63.20
2023-01-19T08:41:59.376Z,64.00
2023-01-19T08:45:03.430Z,65.70
2023-01-19T08:48:08.431Z,69.90
2023-01-19T08:51:12.737Z,74.10
2023-01-19T08:54:18.534Z,73.20
2023-01-19T08:57:22.255Z,72.80
2023-01-19T09:00:27.068Z,70.80
2023-01-19T09:03:30.624Z,77.80
2023-01-19T09:06:34.870Z,86.40
2023-01-19T09:09:43.398Z,87.70
2023-01-19T09:12:46.918Z,72.20
2023-01-19T09:15:50.527Z,79.20
2023-01-19T09:18:54.907Z,74.10
2023-01-19T09:22:01.409Z,68.90
2023-01-19T09:25:05.237Z,66.10
2023-01-19T09:28:10.875Z,65.90
2023-01-19T09:31:26.918Z,67.60
2023-01-19T09:34:31.481Z,64.90
2023-01-19T09:37:36.509Z,72.30
2023-01-19T09:40:53.352Z,64.20
2023-01-19T09:44:00.326Z,61.50
2023-01-19T09:47:13.388Z,61.30
2023-01-19T09:50:31.614Z,69.00
2023-01-19T09:54:09.403Z,80.00
2023-01-19T09:57:13.674Z,75.40
2023-01-19T10:00:18.215Z,76.60
2023-01-19T10:03:24.058Z,67.60
2023-01-19T10:06:28.822Z,68.50
2023-01-19T10:09:39.869Z,68.20
2023-01-19T10:12:55.446Z,73.10
2023-01-19T10:16:07.635Z,88.10
2023-01-19T10:19:44.649Z,68.10
2023-01-19T10:22:50.648Z,92.50
2023-01-19T10:25:55.158Z,91.20
2023-01-19T10:29:05.449Z,69.40
2023-01-19T10:32:12.647Z,71.80
2023-01-19T10:35:23.550Z,77.10
2023-01-19T10:38:29.289Z,74.20
2023-01-19T10:41:42.316Z,67.60
2023-01-19T10:44:46.195Z,59.80
2023-01-19T10:48:08.211Z,56.20
2023-01-19T10:51:12.292Z,60.30
2023-01-19T10:54:17.327Z,63.10
2023-01-19T10:57:30.802Z,59.60
2023-01-19T11:00:40.555Z,56.80
2023-01-19T11:03:44.780Z,54.40
2023-01-19T11:06:49.386Z,51.20
2023-01-19T11:10:16.013Z,52.00
2023-01-19T11:13:19.634Z,53.80
2023-01-19T11:16:29.260Z,68.00
2023-01-19T11:19:33.983Z,56.40
2023-01-19T11:22:37.596Z,44.30
2023-01-19T11:25:46.191Z,48.30
2023-01-19T11:28:51.756Z,54.40
2023-01-19T11:31:57.784Z,39.30
2023-01-19T11:35:01.227Z,43.60
2023-01-19T11:38:18.664Z,36.40
2023-01-19T11:41:27.084Z,34.50
2023-01-19T11:44:36.781Z,31.20
2023-01-19T11:47:44.374Z,26.60
2023-01-19T11:50:49.531Z,30.40
2023-01-19T11:53:54.389Z,29.20
2023-01-19T11:57:00.537Z,40.60
2023-01-19T12:00:15.174Z,41.40
2023-01-19T12:03:30.808Z,30.40
2023-01-19T12:06:42.711Z,28.90
2023-01-19T12:09:54.047Z,46.80
2023-01-19T12:12:58.873Z,44.00
2023-01-19T12:16:12.958Z,42.20
2023-01-19T12:19:21.342Z,39.40
2023-01-19T12:22:28.722Z,36.40
2023-01-19T12:26:01.715Z,29.80
2023-01-19T12:29:20.015Z,35.70
2023-01-19T12:32:34.367Z,35.60
2023-01-19T12:36:11.415Z,35.30
2023-01-19T12:39:19.529Z,36.80
2023-01-19T12:42:23.245Z,35.50
2023-01-19T12:45:32.278Z,32.30
2023-01-19T12:48:35.711Z,34.80
2023-01-19T12:51:38.898Z,50.80
2023-01-19T12:54:49.830Z,38.90
2023-01-19T12:58:18.695Z,43.10
2023-01-19T13:01:25.076Z,42.50
2023-01-19T13:04:33.393Z,46.10
2023-01-19T13:08:11.388Z,56.50
2023-01-19T13:11:18.091Z,53.20
2023-01-19T13:14:36.102Z,38.90
2023-01-19T13:17:51.936Z,46.60
2023-01-19T13:21:04.161Z,44.90
2023-01-19T13:24:10.515Z,40.70
2023-01-19T13:27:14.380Z,56.80
2023-01-19T13:30:22.154Z,62.40
2023-01-19T13:33:28.698Z,57.60
2023-01-19T13:36:37.271Z,55.40
2023-01-19T13:39:46.418Z,48.40
2023-01-19T13:43:32.477Z,52.60
2023-01-19T13:46:38.565Z,29.70
2023-01-19T13:49:45.053Z,36.90
2023-01-19T13:52:51.615Z,35.60
2023-01-19T13:56:20.708Z,37.50
2023-01-19T13:59:24.400Z,31.20
2023-01-19T14:02:27.928Z,34.40
2023-01-19T14:05:39.262Z,37.70
2023-01-19T14:08:42.687Z,58.00
2023-01-19T14:12:03.753Z,51.20
2023-01-19T14:15:14.090Z,55.30
2023-01-19T14:18:17.406Z,46.30
2023-01-19T14:21:20.692Z,55.40
2023-01-19T14:24:24.354Z,40.50
2023-01-19T14:27:29.037Z,40.30
2023-01-19T14:30:32.670Z,49.70
2023-01-19T14:33:49.267Z,56.80
2023-01-19T14:36:52.635Z,38.90
2023-01-19T14:39:57.948Z,41.90
2023-01-19T14:43:06.356Z,42.30
2023-01-19T14:46:18.780Z,40.40
2023-01-19T14:54:39.880Z,35.40
2023-01-19T14:57:43.300Z,35.50
2023-01-19T15:00:48.350Z,38.20
2023-01-19T15:03:51.697Z,43.90
2023-01-19T15:06:56.146Z,42.70
2023-01-19T15:09:59.658Z,45.80
2023-01-19T15:13:04.976Z,49.70
2023-01-19T15:16:09.140Z,40.70
2023-01-19T15:19:13.739Z,38.50
2023-01-19T15:22:17.248Z,45.60
2023-01-19T15:25:26.558Z,51.40
2023-01-19T15:28:31.970Z,48.40
2023-01-19T15:31:36.933Z,45.10
2023-01-19T15:34:40.892Z,45.00
2023-01-19T15:37:44.912Z,40.10
2023-01-19T15:40:51.403Z,43.10
2023-01-19T15:43:54.994Z,43.80
2023-01-19T15:46:58.806Z,45.90
2023-01-19T15:50:03.602Z,43.00
2023-01-19T15:53:12.551Z,54.70
2023-01-19T15:56:23.168Z,45.40
2023-01-19T15:59:26.716Z,41.20
2023-01-19T16:02:30.797Z,43.00
2023-01-19T16:05:42.579Z,49.50
2023-01-19T16:08:46.805Z,49.80
2023-01-19T16:11:50.117Z,47.80
2023-01-19T16:14:53.486Z,43.10
2023-01-19T16:17:56.759Z,46.90
2023-01-19T16:21:00.932Z,46.00
2023-01-19T16:24:04.390Z,52.10
2023-01-19T16:27:10.904Z,63.60
2023-01-19T16:30:16.522Z,52.70
2023-01-19T16:33:20.014Z,53.10
2023-01-19T16:36:28.038Z,47.40
2023-01-19T16:39:31.287Z,46.00
2023-01-19T16:42:34.747Z,49.80
2023-01-19T16:45:59.104Z,47.30
2023-01-19T16:49:11.119Z,50.10
2023-01-19T16:52:15.329Z,67.20
2023-01-19T16:55:20.994Z,68.50
2023-01-19T16:58:25.032Z,72.10
2023-01-19T17:01:29.697Z,75.40
2023-01-19T17:04:33.088Z,66.40
2023-01-19T17:07:36.367Z,62.50
2023-01-19T17:10:41.859Z,73.20
2023-01-19T17:14:11.935Z,61.10
2023-01-19T17:17:15.382Z,55.80
2023-01-19T17:20:18.793Z,46.20
2023-01-19T17:23:23.126Z,45.20
2023-01-19T17:26:33.954Z,45.90
2023-01-19T17:32:43.778Z,41.30
2023-01-19T17:35:47.077Z,42.00
2023-01-19T17:38:56.726Z,45.50
2023-01-19T17:42:07.347Z,45.20
2023-01-19T17:45:11.470Z,47.90
2023-01-19T17:48:17.592Z,47.60
2023-01-19T17:51:23.122Z,46.70
2023-01-19T17:54:26.457Z,51.90
2023-01-19T17:57:29.839Z,51.30
2023-01-19T18:00:33.237Z,50.30
2023-01-19T18:03:36.473Z,54.70
2023-01-19T18:06:39.895Z,50.80
2023-01-19T18:09:43.160Z,56.10
2023-01-19T18:12:46.387Z,56.20
2023-01-19T18:15:49.998Z,48.10
2023-01-19T18:18:54.738Z,47.40
2023-01-19T18:21:58.336Z,50.70
2023-01-19T18:25:01.750Z,49.70
2023-01-19T18:28:06.327Z,47.70
2023-01-19T18:31:12.663Z,40.10
2023-01-19T18:34:16.463Z,43.00
2023-01-19T18:37:19.964Z,31.50
2023-01-19T18:40:23.989Z,35.10
2023-01-19T18:43:27.506Z,37.80
2023-01-19T18:46:30.852Z,34.10
2023-01-19T18:49:34.083Z,31.70
2023-01-19T18:52:37.280Z,32.60
2023-01-19T18:55:40.652Z,36.60
2023-01-19T18:58:44.833Z,38.00
2023-01-19T19:01:48.181Z,39.90
2023-01-19T19:04:51.657Z,41.80
2023-01-19T19:07:55.304Z,46.70
2023-01-19T19:10:58.572Z,42.30
2023-01-19T19:14:02.693Z,45.90
2023-01-19T19:17:06.209Z,45.50
2023-01-19T19:20:10.373Z,47.70
2023-01-19T19:23:15.315Z,50.00
2023-01-19T19:26:19.006Z,48.80
2023-01-19T19:29:22.421Z,50.10
2023-01-19T19:32:25.644Z,55.10
2023-01-19T19:35:29.063Z,56.60
2023-01-19T19:38:32.968Z,57.60
2023-01-19T19:41:38.488Z,52.40
2023-01-19T19:44:41.691Z,50.60
2023-01-19T19:47:45.515Z,52.10
2023-01-19T19:50:48.747Z,45.90
2023-01-19T19:53:53.843Z,45.40
2023-01-19T19:57:05.108Z,43.40
2023-01-19T20:00:10.498Z,48.60
2023-01-19T20:03:14.241Z,47.00
2023-01-19T20:06:21.620Z,47.80
2023-01-19T20:09:25.335Z,49.70
2023-01-19T20:12:28.690Z,49.80
2023-01-19T20:15:32.253Z,50.20
2023-01-19T20:19:08.028Z,49.70
2023-01-19T20:22:11.343Z,48.20
2023-01-19T20:25:15.384Z,46.30
2023-01-19T20:28:19.225Z,45.90
2023-01-19T20:31:29.403Z,51.30
2023-01-19T20:34:33.876Z,53.40
2023-01-19T20:37:37.384Z,53.00
2023-01-19T20:40:40.684Z,48.40
2023-01-19T20:43:44.217Z,49.50
2023-01-19T20:46:55.672Z,47.40
2023-01-19T20:49:59.641Z,42.80
2023-01-19T20:53:03.133Z,43.30
2023-01-19T20:56:11.091Z,47.00
2023-01-19T20:59:14.697Z,42.40
2023-01-19T21:02:18.036Z,37.30
2023-01-19T21:05:21.574Z,40.00
2023-01-19T21:08:24.915Z,39.50
2023-01-19T21:11:28.240Z,42.20
2023-01-19T21:14:31.432Z,37.70
2023-01-19T21:17:34.808Z,40.30
2023-01-19T21:20:38.029Z,41.20
2023-01-19T21:23:41.251Z,40.80
2023-01-19T21:26:45.097Z,39.30
2023-01-19T21:29:48.590Z,40.50
2023-01-19T21:32:51.759Z,44.70
2023-01-19T21:35:56.972Z,46.40
2023-01-19T21:39:00.978Z,44.30
2023-01-19T21:42:04.716Z,45.70
2023-01-19T21:45:08.584Z,48.20
2023-01-19T21:48:12.237Z,45.40
2023-01-19T21:51:16.288Z,51.10
2023-01-19T21:54:19.631Z,52.70
2023-01-19T21:57:22.824Z,57.30
2023-01-19T22:00:29.661Z,62.30
2023-01-19T22:03:33.214Z,62.20
2023-01-19T22:06:36.498Z,57.20
2023-01-19T22:09:39.842Z,55.30
2023-01-19T22:12:43.171Z,57.70
2023-01-19T22:15:46.440Z,53.60
2023-01-19T22:18:52.948Z,49.40
2023-01-19T22:21:56.250Z,51.70
2023-01-19T22:24:59.501Z,48.10
2023-01-19T22:28:02.843Z,45.10
2023-01-19T22:31:14.679Z,46.70
2023-01-19T22:34:18.005Z,52.40
2023-01-19T22:37:21.182Z,49.40
2023-01-19T22:40:24.399Z,53.00
2023-01-19T22:43:27.579Z,47.10
2023-01-19T22:46:33.766Z,48.70
2023-01-19T22:49:36.952Z,53.90
2023-01-19T22:52:40.173Z,53.30
2023-01-19T22:55:43.375Z,48.40
2023-01-19T22:58:47.733Z,49.80
2023-01-19T23:01:51.479Z,42.90
2023-01-19T23:04:54.724Z,41.60
2023-01-19T23:07:57.923Z,39.70
2023-01-19T23:11:16.617Z,40.10
2023-01-19T23:14:21.732Z,41.50
2023-01-19T23:17:25.001Z,38.10
2023-01-19T23:20:28.350Z,36.30
2023-01-19T23:23:32.938Z,36.80
2023-01-19T23:26:39.063Z,38.00
2023-01-19T23:29:42.234Z,37.50
2023-01-19T23:32:49.572Z,37.70
2023-01-19T23:35:55.909Z,37.60
2023-01-19T23:39:04.805Z,36.80
2023-01-19T23:42:08.244Z,35.00
2023-01-19T23:45:11.704Z,36.40
2023-01-19T23:48:15.194Z,39.00
2023-01-19T23:51:21.163Z,35.90
2023-01-19T23:54:24.433Z,35.90
2023-01-19T23:57:27.616Z,39.00
